Aérodrome :
LOGIN :

S'inscrire | Disclaimer

   EN    FR    IT 

 










Légende :    VFR   VFR Marginal   IFR   IFR Intensif   IFR Très Intensif
Visi : 
Plafond : 
>= 8 km
>= 3000ft
5 à 8 km
1000 à 3000 ft
1500m à 5 km
500 à 1000 ft
800 à 1500m
200 à 500 ft
< 800m
< 200 ft
Symboles :   Orages  Brouillard  Fortes neiges  Fortes précipitations  Vent > 20 kt
SIGMETs :   Divers  Orages  Givrage  Turbulence  Onde Orograph.  Cendres Volcan.







- Altitude de l'aérodrome : 308 ft
- Code IATA : POZ


EPPO - Poznan-Lawica

DERNIER METAR :
  • 181130Z 14003KT 1600 BR SCT002 OVC003 02/02 Q1026

METARs EXPIRÉS :
  • 181100Z 13004KT 1500 BR OVC002 02/02 Q1026
  • 181030Z 16003KT 1000 R28/1600 -DZ BR OVC001 01/01 Q1027 REDZ
  • 181000Z 16005KT 0900 R28/1500 DZ FG OVC001 01/01 Q1027
  • 180930Z 14003KT 0900 R28/1500 DZ FG OVC001 01/01 Q1027
  • 180900Z 12003KT 0800 R28/1400D -DZ FG OVC001 01/01 Q1027

TAF TAF EPPO
Valide du 18 à 12h jusqu'au 19 à 12h UTC


181130Z 1812/1912 19003KT 1500 BR OVC003
PROB40
TEMPO 1812/1904 0700 -DZ FG OVC001
PROB30
TEMPO 1818/1904 0500 FZFG
BECMG 1904/1907 13010KT 3500 BR BKN005
BECMG 1909/1912 6000 SCT008
Pas de NOTAMs connus pour ce terrain.



MET'MAP, la Météo Aéronautique d'un coup d'oeil ! - Copyright ORBIFLY Décembre 2007 - Disclaimer

ORBIFLY MET'MAP TEAM :

Programmation & Développement : Alexandra Zaïnal
Conception & Développement : Baudouin d'Aumeries
Co-Programmation & Développement : Marc-Olivier Méhu
Soutien technique & logistique : Manuel Goepfert

Contact : metmap@orbifly.com




SOURCES & CREDITS :

   NOAA